Time;durP1;ratioP1;P1;durP2;ratioP2;P2;SDS_P1;SDS_P2;PMS_P1;PMS_P2;Temp;Humidity;BMP_temperature;BMP_pressure;BME280_temperature;BME280_humidity;BME280_pressure;Samples;Min_cycle;Max_cycle;Signal;HPM_P1;HPM_P2
2022/12/07 00:01:11;;;;;;;25.17;10.68;;;2.40;99.90;;;;;;5046857;28;20942;-64
2022/12/07 00:03:39;;;;;;;24.05;10.70;;;2.50;99.90;;;;;;5047344;28;20034;-66
2022/12/07 00:06:06;;;;;;;24.52;11.10;;;2.50;99.90;;;;;;5044000;28;20492;-66
2022/12/07 00:08:33;;;;;;;23.63;11.00;;;2.50;99.90;;;;;;5047188;28;20099;-65
2022/12/07 00:11:03;;;;;;;23.77;10.75;;;2.50;99.90;;;;;;5045105;28;20081;-65
2022/12/07 00:13:29;;;;;;;26.30;11.20;;;2.50;99.90;;;;;;5019898;28;20035;-65
2022/12/07 00:15:54;;;;;;;26.05;11.38;;;2.50;99.90;;;;;;5045743;28;20283;-67
2022/12/07 00:18:20;;;;;;;24.98;11.13;;;2.50;99.90;;;;;;5047646;28;20044;-66
2022/12/07 00:20:45;;;;;;;28.23;11.57;;;2.40;99.90;;;;;;5049819;28;20122;-65
2022/12/07 00:23:11;;;;;;;27.52;11.20;;;2.40;99.90;;;;;;5048671;28;20831;-66
2022/12/07 00:25:37;;;;;;;27.30;12.40;;;2.40;99.90;;;;;;5040930;28;20051;-65
2022/12/07 00:28:03;;;;;;;24.23;10.82;;;2.40;99.90;;;;;;5043480;28;20048;-65
2022/12/07 00:30:28;;;;;;;26.13;11.40;;;2.40;99.90;;;;;;5027608;28;20105;-65
2022/12/07 00:32:54;;;;;;;29.02;12.20;;;2.40;99.90;;;;;;5028519;28;20052;-67
2022/12/07 00:35:19;;;;;;;25.98;11.40;;;2.50;99.90;;;;;;5043339;28;20082;-66
2022/12/07 00:37:45;;;;;;;25.48;11.57;;;2.50;99.90;;;;;;5033016;28;20087;-66
2022/12/07 00:40:11;;;;;;;28.05;12.13;;;2.50;99.90;;;;;;5033496;28;20460;-66
2022/12/07 00:42:37;;;;;;;30.70;12.95;;;2.50;99.90;;;;;;5046014;28;20032;-65
2022/12/07 00:45:03;;;;;;;28.42;12.73;;;2.50;99.90;;;;;;5042622;28;20064;-65
2022/12/07 00:47:28;;;;;;;24.55;11.15;;;2.50;99.90;;;;;;5046643;28;20033;-66
2022/12/07 00:49:54;;;;;;;27.50;12.15;;;2.50;99.90;;;;;;5047503;28;20037;-65
2022/12/07 00:52:19;;;;;;;26.80;12.20;;;2.50;99.90;;;;;;5047088;28;20122;-66
2022/12/07 00:54:45;;;;;;;32.65;12.88;;;2.50;99.90;;;;;;5045243;28;20482;-66
2022/12/07 00:57:10;;;;;;;28.25;12.80;;;2.50;99.90;;;;;;5047131;28;20035;-66
2022/12/07 00:59:36;;;;;;;24.83;11.05;;;2.50;99.90;;;;;;5032009;28;20775;-66
2022/12/07 01:02:02;;;;;;;30.52;12.27;;;2.50;99.90;;;;;;5048218;28;20040;-66
2022/12/07 01:04:27;;;;;;;27.95;12.57;;;2.50;99.90;;;;;;5047555;28;20074;-66
2022/12/07 01:06:53;;;;;;;28.42;11.63;;;2.60;99.90;;;;;;5045619;28;20074;-66
2022/12/07 01:09:19;;;;;;;27.90;12.23;;;2.60;99.90;;;;;;5046594;28;20021;-65
2022/12/07 01:11:44;;;;;;;30.23;12.57;;;2.60;99.90;;;;;;5047699;28;20078;-66
2022/12/07 01:14:10;;;;;;;26.70;11.90;;;2.60;99.90;;;;;;5043534;28;20044;-65
2022/12/07 01:16:35;;;;;;;29.20;12.30;;;2.60;99.90;;;;;;5047288;28;20040;-65
2022/12/07 01:19:04;;;;;;;31.08;12.55;;;2.60;99.90;;;;;;5042202;28;20055;-66
2022/12/07 01:21:37;;;;;;;28.58;11.68;;;2.60;99.90;;;;;;5048914;28;20045;-66
2022/12/07 01:24:04;;;;;;;27.80;11.05;;;2.60;99.90;;;;;;5039424;28;20042;-66
2022/12/07 01:26:31;;;;;;;28.48;11.85;;;2.60;99.90;;;;;;5038561;28;20076;-65
2022/12/07 01:28:58;;;;;;;27.33;11.45;;;2.60;99.90;;;;;;5039289;28;20056;-67
2022/12/07 01:31:25;;;;;;;26.42;11.25;;;2.60;99.90;;;;;;5046118;28;20028;-65
2022/12/07 01:33:53;;;;;;;28.27;11.85;;;2.60;99.90;;;;;;5046853;28;20047;-65
2022/12/07 01:36:28;;;;;;;28.58;11.88;;;2.60;99.90;;;;;;5044739;28;20021;-66
2022/12/07 01:38:57;;;;;;;26.35;11.65;;;2.60;99.90;;;;;;5039750;28;20022;-66
2022/12/07 01:41:24;;;;;;;29.33;11.93;;;2.60;99.90;;;;;;5040476;28;20029;-65
2022/12/07 01:44:08;;;;;;;26.48;11.52;;;2.60;99.90;;;;;;5043012;28;20041;-65
2022/12/07 01:46:34;;;;;;;25.52;11.07;;;2.60;99.90;;;;;;5045746;28;20045;-65
2022/12/07 01:49:01;;;;;;;25.88;11.45;;;2.60;99.90;;;;;;5046651;28;20029;-67
2022/12/07 01:51:27;;;;;;;27.05;11.70;;;2.60;99.90;;;;;;5045195;28;20029;-65
2022/12/07 01:53:53;;;;;;;26.83;11.27;;;2.60;99.90;;;;;;5045937;28;20128;-65
2022/12/07 01:56:24;;;;;;;25.85;12.32;;;2.60;99.90;;;;;;5045082;28;20482;-66
2022/12/07 01:58:52;;;;;;;23.65;10.88;;;2.60;99.90;;;;;;5047242;28;20029;-65
2022/12/07 02:01:17;;;;;;;22.75;10.50;;;2.50;99.90;;;;;;5046310;28;20354;-66
2022/12/07 02:03:44;;;;;;;23.73;10.75;;;2.50;99.90;;;;;;5045287;28;20460;-66
2022/12/07 02:06:14;;;;;;;28.17;11.90;;;2.50;99.90;;;;;;5044191;28;20063;-68
2022/12/07 02:08:41;;;;;;;25.70;10.90;;;2.50;99.90;;;;;;5045322;28;20060;-65
2022/12/07 02:11:08;;;;;;;29.45;10.82;;;2.60;99.90;;;;;;5031363;28;20076;-66
2022/12/07 02:13:35;;;;;;;26.38;11.13;;;2.60;99.90;;;;;;5037538;28;20026;-65
2022/12/07 02:16:18;;;;;;;22.90;10.23;;;2.60;99.90;;;;;;5046092;28;20048;-67
2022/12/07 02:18:59;;;;;;;25.75;11.45;;;2.60;99.90;;;;;;5031822;28;20057;-66
2022/12/07 02:21:57;;;;;;;25.02;11.07;;;2.50;99.90;;;;;;5030193;28;20036;-66
2022/12/07 02:24:55;;;;;;;27.50;11.27;;;2.50;99.90;;;;;;5039042;28;20103;-65
2022/12/07 02:27:34;;;;;;;29.23;11.85;;;2.40;99.90;;;;;;5048095;28;20028;-65
2022/12/07 02:30:05;;;;;;;28.45;12.23;;;2.40;99.90;;;;;;5048380;28;20121;-65
2022/12/07 02:32:54;;;;;;;31.15;12.02;;;2.40;99.90;;;;;;5051532;28;20029;-65
2022/12/07 02:35:32;;;;;;;26.63;11.60;;;2.40;99.90;;;;;;5048531;28;20245;-66
2022/12/07 02:38:20;;;;;;;27.30;11.55;;;2.40;99.90;;;;;;5044090;28;20034;-66
2022/12/07 02:40:54;;;;;;;30.33;12.52;;;2.40;99.90;;;;;;5047906;28;20037;-66
2022/12/07 02:43:27;;;;;;;27.45;11.57;;;2.40;99.90;;;;;;5044347;28;20037;-66
2022/12/07 02:45:57;;;;;;;27.00;11.57;;;2.40;99.90;;;;;;5049573;28;20037;-66
2022/12/07 02:48:24;;;;;;;29.75;11.48;;;2.40;99.90;;;;;;5046267;28;20032;-65
2022/12/07 02:50:52;;;;;;;25.33;11.40;;;2.40;99.90;;;;;;5048996;28;20040;-65
2022/12/07 02:53:35;;;;;;;29.92;11.90;;;2.30;99.90;;;;;;5040322;28;20083;-64
2022/12/07 02:56:07;;;;;;;28.60;11.93;;;2.30;99.90;;;;;;5046978;28;20123;-66
2022/12/07 02:58:53;;;;;;;30.95;12.02;;;2.30;99.90;;;;;;5048373;28;20039;-65
2022/12/07 03:01:55;;;;;;;31.70;12.10;;;2.20;99.90;;;;;;5047523;28;20432;-65
2022/12/07 03:04:40;;;;;;;27.17;11.80;;;2.20;99.90;;;;;;5045939;28;20069;-65
2022/12/07 03:07:19;;;;;;;29.63;12.05;;;2.30;99.90;;;;;;5048706;28;20040;-67
2022/12/07 03:09:52;;;;;;;31.70;12.77;;;2.30;99.90;;;;;;5047428;28;20037;-66
2022/12/07 03:12:24;;;;;;;30.45;12.75;;;2.30;99.90;;;;;;5048296;28;20032;-66
2022/12/07 03:14:57;;;;;;;36.25;13.48;;;2.40;99.90;;;;;;5047247;28;20064;-65
2022/12/07 03:17:30;;;;;;;32.58;13.35;;;2.40;99.90;;;;;;5043451;28;20665;-66
2022/12/07 03:20:00;;;;;;;32.63;13.27;;;2.40;99.90;;;;;;5020989;28;20084;-66
2022/12/07 03:22:30;;;;;;;33.70;12.55;;;2.40;99.90;;;;;;5048672;28;20124;-65
2022/12/07 03:24:57;;;;;;;;;;;2.40;99.90;;;;;;5044737;28;20524;-66
2022/12/07 03:27:29;;;;;;;32.35;12.15;;;2.40;99.90;;;;;;5025663;28;19909;-65
2022/12/07 03:30:01;;;;;;;32.33;12.73;;;2.30;99.90;;;;;;5031725;28;20063;-65
2022/12/07 03:32:33;;;;;;;34.72;13.00;;;2.30;99.90;;;;;;5028912;28;20525;-65
2022/12/07 03:35:09;;;;;;;36.08;13.55;;;2.30;99.90;;;;;;5046462;28;20037;-66
2022/12/07 03:37:45;;;;;;;28.55;12.10;;;2.40;99.90;;;;;;5038357;28;20120;-65
2022/12/07 03:40:17;;;;;;;33.17;12.65;;;2.40;99.90;;;;;;5037198;28;20352;-64
2022/12/07 03:42:43;;;;;;;31.10;12.77;;;2.30;99.90;;;;;;5046790;28;20028;-65
2022/12/07 03:45:10;;;;;;;36.17;13.40;;;2.40;99.90;;;;;;5028635;28;20046;-64
2022/12/07 03:47:50;;;;;;;30.75;12.65;;;2.30;99.90;;;;;;5032002;28;20037;-66
2022/12/07 03:50:31;;;;;;;28.75;11.80;;;2.20;99.90;;;;;;5048484;28;20053;-66
2022/12/07 03:53:08;;;;;;;29.85;12.05;;;2.20;99.90;;;;;;5049206;28;20462;-65
2022/12/07 03:55:37;;;;;;;32.85;12.23;;;2.10;99.90;;;;;;5033480;28;20048;-66
2022/12/07 03:58:07;;;;;;;30.80;12.32;;;2.10;99.90;;;;;;5036786;28;20029;-65
2022/12/07 04:00:33;;;;;;;33.58;13.23;;;2.10;99.90;;;;;;5032097;28;20032;-64
2022/12/07 04:02:59;;;;;;;30.55;12.00;;;2.10;99.90;;;;;;5025997;28;20474;-66
2022/12/07 04:05:25;;;;;;;35.65;13.68;;;2.10;99.90;;;;;;5025382;28;20045;-66
2022/12/07 04:07:50;;;;;;;35.20;14.43;;;2.20;99.90;;;;;;5029686;28;20474;-68
2022/12/07 04:10:16;;;;;;;34.65;14.13;;;2.20;99.90;;;;;;5029390;28;20028;-66
2022/12/07 04:12:42;;;;;;;35.47;13.38;;;2.10;99.90;;;;;;5030417;28;20042;-67
2022/12/07 04:15:08;;;;;;;39.38;15.05;;;2.10;99.90;;;;;;5029681;28;20044;-68
2022/12/07 04:17:34;;;;;;;38.40;14.75;;;2.10;99.90;;;;;;5029809;28;20493;-68
2022/12/07 04:19:59;;;;;;;36.92;14.25;;;2.10;99.90;;;;;;5029629;28;20069;-68
2022/12/07 04:22:25;;;;;;;33.25;13.77;;;2.00;99.90;;;;;;5028730;28;20132;-68
2022/12/07 04:24:50;;;;;;;38.92;14.85;;;2.00;99.90;;;;;;5029868;28;20068;-67
2022/12/07 04:27:16;;;;;;;38.15;13.73;;;2.00;99.90;;;;;;5028809;28;20052;-67
2022/12/07 04:29:42;;;;;;;36.88;14.45;;;2.00;99.90;;;;;;5030029;28;20033;-68
2022/12/07 04:32:07;;;;;;;36.67;14.77;;;2.00;99.90;;;;;;5029273;28;20645;-68
2022/12/07 04:34:33;;;;;;;36.58;15.05;;;2.00;99.90;;;;;;5028984;28;20104;-68
2022/12/07 04:36:58;;;;;;;37.88;15.25;;;1.90;99.90;;;;;;5029061;28;20347;-67
2022/12/07 04:39:30;;;;;;;43.30;16.58;;;1.90;99.90;;;;;;5028681;28;20466;-66
2022/12/07 04:41:56;;;;;;;39.97;14.50;;;1.80;99.90;;;;;;5028594;28;20060;-66
2022/12/07 04:44:23;;;;;;;44.22;17.05;;;1.80;99.90;;;;;;5028667;28;20453;-67
2022/12/07 04:46:50;;;;;;;42.42;15.27;;;1.70;99.90;;;;;;5029383;28;20462;-68
2022/12/07 04:49:16;;;;;;;42.03;15.68;;;1.60;99.90;;;;;;5028643;28;20043;-66
2022/12/07 04:51:43;;;;;;;49.25;16.65;;;1.70;99.90;;;;;;5029435;28;20033;-67
2022/12/07 04:54:09;;;;;;;38.35;14.52;;;1.70;99.90;;;;;;5028091;28;20087;-68
2022/12/07 04:56:35;;;;;;;51.08;16.83;;;1.70;99.90;;;;;;5027996;28;20026;-66
2022/12/07 04:59:01;;;;;;;46.97;17.60;;;1.80;99.90;;;;;;5029234;28;20036;-67
2022/12/07 05:01:27;;;;;;;45.55;17.05;;;1.80;99.90;;;;;;5028397;28;20088;-68
2022/12/07 05:03:53;;;;;;;51.90;17.02;;;1.80;99.90;;;;;;5029473;28;20030;-67
2022/12/07 05:06:19;;;;;;;50.78;17.73;;;1.80;99.90;;;;;;5028190;28;20017;-67
2022/12/07 05:08:45;;;;;;;47.22;17.20;;;1.80;99.90;;;;;;5027762;28;20490;-67
2022/12/07 05:11:37;;;;;;;50.58;17.25;;;1.80;99.90;;;;;;5028281;28;20030;-67
2022/12/07 05:13:57;;;;;;;54.90;18.05;;;1.80;99.90;;;;;;5028783;28;20072;-67
2022/12/07 05:16:23;;;;;;;53.08;17.55;;;1.80;99.90;;;;;;5026778;28;20075;-66
2022/12/07 05:18:48;;;;;;;45.78;16.50;;;1.80;99.90;;;;;;5029102;28;20027;-67
2022/12/07 05:21:14;;;;;;;46.88;16.63;;;1.80;99.90;;;;;;5028312;28;20489;-68
2022/12/07 05:23:40;;;;;;;48.15;17.15;;;1.90;99.90;;;;;;5025454;28;20197;-68
2022/12/07 05:26:05;;;;;;;46.75;17.13;;;1.90;99.90;;;;;;5025745;28;20406;-68
2022/12/07 05:28:31;;;;;;;53.97;18.10;;;1.90;99.90;;;;;;5026413;28;20036;-67
2022/12/07 05:30:56;;;;;;;48.85;17.17;;;1.90;99.90;;;;;;5023819;28;20033;-69
2022/12/07 05:33:22;;;;;;;50.05;18.00;;;1.90;99.90;;;;;;5020627;28;20034;-68
2022/12/07 05:35:48;;;;;;;42.47;16.55;;;2.00;99.90;;;;;;5022534;28;20033;-68
2022/12/07 05:38:13;;;;;;;48.67;16.80;;;2.00;99.90;;;;;;5027723;28;20022;-69
2022/12/07 05:40:39;;;;;;;41.72;15.40;;;2.00;99.90;;;;;;5026951;28;20042;-68
2022/12/07 05:43:04;;;;;;;43.03;16.10;;;2.00;99.90;;;;;;5028199;28;20629;-69
2022/12/07 05:45:30;;;;;;;48.35;17.08;;;2.00;99.90;;;;;;5025110;28;20041;-68
2022/12/07 05:47:56;;;;;;;43.33;15.93;;;2.00;99.90;;;;;;5029776;28;20040;-67
2022/12/07 05:50:21;;;;;;;40.00;15.48;;;2.00;99.90;;;;;;5027502;28;20108;-68
2022/12/07 05:52:47;;;;;;;44.13;16.15;;;2.00;99.90;;;;;;5030703;28;20033;-69
2022/12/07 05:55:13;;;;;;;42.45;15.73;;;1.90;99.90;;;;;;5032563;28;20517;-69
2022/12/07 05:57:38;;;;;;;44.15;16.73;;;2.00;99.90;;;;;;5030359;28;20034;-69
2022/12/07 06:00:05;;;;;;;44.17;15.57;;;2.00;99.90;;;;;;5031698;28;20033;-69
2022/12/07 06:02:31;;;;;;;47.45;17.38;;;2.00;99.90;;;;;;5031712;28;20144;-68
2022/12/07 06:04:56;;;;;;;43.72;15.77;;;2.00;99.90;;;;;;5033115;28;20108;-68
2022/12/07 06:07:22;;;;;;;39.60;15.77;;;2.00;99.90;;;;;;5031544;28;20041;-69
2022/12/07 06:09:48;;;;;;;40.83;15.50;;;2.10;99.90;;;;;;5031819;28;20057;-69
2022/12/07 06:14:58;;;;;;;42.50;14.32;;;2.10;99.90;;;;;;5032077;28;20132;-69
2022/12/07 06:17:24;;;;;;;43.72;15.50;;;2.10;99.90;;;;;;5027686;28;20030;-67
2022/12/07 06:19:50;;;;;;;42.28;15.35;;;2.10;99.90;;;;;;5030973;28;20041;-69
2022/12/07 06:22:16;;;;;;;38.53;15.05;;;2.10;99.90;;;;;;5026756;28;20046;-68
2022/12/07 06:24:42;;;;;;;39.35;15.60;;;2.20;99.90;;;;;;5030236;28;20865;-68
2022/12/07 06:27:08;;;;;;;42.90;15.65;;;2.20;99.90;;;;;;5029984;28;20111;-69
2022/12/07 06:29:34;;;;;;;41.42;15.70;;;2.20;99.90;;;;;;5028685;28;20025;-67
2022/12/07 06:32:00;;;;;;;42.00;15.63;;;2.10;99.90;;;;;;5031917;28;20033;-69
2022/12/07 06:34:26;;;;;;;42.17;15.52;;;2.10;99.90;;;;;;5029231;28;20045;-68
2022/12/07 06:36:54;;;;;;;35.88;13.98;;;2.20;99.90;;;;;;5031943;28;20033;-68
2022/12/07 06:39:26;;;;;;;43.88;15.93;;;2.10;99.90;;;;;;5028811;28;20033;-68
2022/12/07 06:41:53;;;;;;;41.83;15.52;;;2.10;99.90;;;;;;5030808;28;20048;-69
2022/12/07 06:44:19;;;;;;;42.30;15.88;;;2.00;99.90;;;;;;5028532;28;20422;-69
2022/12/07 06:46:45;;;;;;;41.72;15.40;;;2.10;99.90;;;;;;5031531;28;20073;-69
2022/12/07 06:49:11;;;;;;;43.85;14.70;;;2.10;99.90;;;;;;5029323;28;20053;-67
2022/12/07 06:51:40;;;;;;;38.63;15.00;;;2.10;99.90;;;;;;5029541;28;20195;-68
2022/12/07 06:54:08;;;;;;;41.30;14.50;;;2.00;99.90;;;;;;5023203;28;20038;-69
2022/12/07 06:56:33;;;;;;;40.17;16.00;;;2.00;99.90;;;;;;5017061;28;20402;-68
2022/12/07 06:58:59;;;;;;;42.85;15.18;;;2.00;99.90;;;;;;5029505;28;20037;-69
2022/12/07 07:01:25;;;;;;;37.67;14.68;;;2.00;99.90;;;;;;5029467;28;20036;-69
2022/12/07 07:03:50;;;;;;;43.85;14.70;;;2.00;99.90;;;;;;5029770;28;20041;-68
2022/12/07 07:06:16;;;;;;;38.67;14.95;;;2.00;99.90;;;;;;5030849;28;20038;-69
2022/12/07 07:08:42;;;;;;;39.67;14.45;;;2.00;99.90;;;;;;5030235;28;20030;-68
2022/12/07 07:11:08;;;;;;;42.20;14.95;;;1.90;99.90;;;;;;5030232;28;20034;-68
2022/12/07 07:13:35;;;;;;;39.42;14.68;;;1.90;99.90;;;;;;5028813;28;20570;-68
2022/12/07 07:16:00;;;;;;;41.90;14.95;;;1.90;99.90;;;;;;5031207;28;20034;-67
2022/12/07 07:18:27;;;;;;;40.83;15.02;;;1.90;99.90;;;;;;5029186;28;20032;-68
2022/12/07 07:20:53;;;;;;;36.75;14.63;;;1.90;99.90;;;;;;5030288;28;20131;-69
2022/12/07 07:23:20;;;;;;;40.13;14.95;;;1.90;99.90;;;;;;5045405;28;20376;-68
2022/12/07 07:25:46;;;;;;;40.17;15.18;;;1.90;99.90;;;;;;5027879;28;20054;-68
2022/12/07 07:28:11;;;;;;;43.85;15.55;;;1.90;99.90;;;;;;5029840;28;20466;-67
2022/12/07 07:30:37;;;;;;;40.67;14.57;;;1.90;99.90;;;;;;5039422;28;20048;-68
2022/12/07 07:33:04;;;;;;;41.95;15.05;;;1.90;99.90;;;;;;5028620;28;20030;-68
2022/12/07 07:35:33;;;;;;;39.17;14.52;;;1.90;99.90;;;;;;5030179;28;20037;-68
2022/12/07 07:37:58;;;;;;;36.90;14.93;;;2.00;99.90;;;;;;5028254;28;20033;-69
2022/12/07 07:40:25;;;;;;;41.42;13.80;;;2.00;99.90;;;;;;5030178;28;20513;-68
2022/12/07 07:42:52;;;;;;;40.17;14.40;;;2.00;99.90;;;;;;5028746;28;20041;-68
2022/12/07 07:45:19;;;;;;;40.15;14.45;;;2.00;99.90;;;;;;5030353;28;20061;-68
2022/12/07 07:47:45;;;;;;;44.38;15.00;;;2.00;99.90;;;;;;5029086;28;20497;-68
2022/12/07 07:50:11;;;;;;;37.88;14.40;;;2.00;99.90;;;;;;5029360;28;20033;-68
2022/12/07 07:52:37;;;;;;;38.83;15.23;;;2.00;99.90;;;;;;5029516;28;20033;-68
2022/12/07 07:55:03;;;;;;;37.53;14.00;;;2.00;99.90;;;;;;5030120;28;20132;-69
2022/12/07 07:57:28;;;;;;;39.75;13.98;;;2.10;99.90;;;;;;5024781;28;20044;-68
2022/12/07 07:59:54;;;;;;;36.50;15.10;;;2.00;99.90;;;;;;5010240;28;20037;-68
2022/12/07 08:02:21;;;;;;;40.45;14.85;;;2.10;99.90;;;;;;5024561;28;20026;-70
2022/12/07 08:04:47;;;;;;;40.65;14.85;;;2.10;99.90;;;;;;5020904;28;20376;-68
2022/12/07 08:07:14;;;;;;;42.13;14.75;;;2.10;99.90;;;;;;5026724;28;20092;-67
2022/12/07 08:09:40;;;;;;;41.08;15.07;;;2.10;99.90;;;;;;5027521;28;20091;-69
2022/12/07 08:12:06;;;;;;;41.55;14.70;;;2.10;99.90;;;;;;5030158;28;20029;-69
2022/12/07 08:14:31;;;;;;;41.60;15.50;;;2.10;99.90;;;;;;5026960;28;20037;-68
2022/12/07 08:16:57;;;;;;;39.33;14.82;;;2.10;99.90;;;;;;5016146;28;20415;-68
2022/12/07 08:19:23;;;;;;;42.92;15.07;;;2.10;99.90;;;;;;5012214;28;20453;-67
2022/12/07 08:21:49;;;;;;;46.85;15.70;;;2.10;99.90;;;;;;5024812;28;20454;-68
2022/12/07 08:24:15;;;;;;;45.42;15.65;;;2.20;99.90;;;;;;5029346;28;20048;-68
2022/12/07 08:26:42;;;;;;;43.67;16.02;;;2.20;99.90;;;;;;5028312;28;20698;-68
2022/12/07 08:29:08;;;;;;;40.83;15.48;;;2.20;99.90;;;;;;5029358;28;20040;-68
2022/12/07 08:31:33;;;;;;;44.75;15.65;;;2.20;99.90;;;;;;5027941;28;20390;-69
2022/12/07 08:33:59;;;;;;;42.72;15.43;;;2.20;99.90;;;;;;5029180;28;20501;-69
2022/12/07 08:36:25;;;;;;;37.75;14.15;;;2.20;99.90;;;;;;5026875;28;20038;-68
2022/12/07 08:38:53;;;;;;;35.78;13.68;;;2.20;99.90;;;;;;5025210;28;20033;-67
2022/12/07 08:41:19;;;;;;;40.35;14.48;;;2.20;99.90;;;;;;5029303;28;20028;-68
2022/12/07 08:43:45;;;;;;;41.57;14.97;;;2.20;99.90;;;;;;5027817;28;20819;-68
2022/12/07 08:46:33;;;;;;;40.42;14.95;;;2.20;99.90;;;;;;5027374;28;20046;-68
2022/12/07 08:49:25;;;;;;;36.58;14.80;;;2.30;99.90;;;;;;5025851;28;20034;-69
2022/12/07 08:51:51;;;;;;;38.20;13.25;;;2.30;99.90;;;;;;5023496;28;20045;-69
2022/12/07 08:54:19;;;;;;;43.47;15.07;;;2.40;99.90;;;;;;5029413;28;20568;-69
2022/12/07 08:56:47;;;;;;;36.28;13.50;;;2.40;99.90;;;;;;5027954;28;20040;-68
2022/12/07 08:59:15;;;;;;;32.75;12.18;;;2.40;99.90;;;;;;5009819;28;20390;-66
2022/12/07 09:01:41;;;;;;;37.63;13.48;;;2.40;99.90;;;;;;5008616;28;20467;-67
2022/12/07 09:04:07;;;;;;;36.38;13.60;;;2.40;99.90;;;;;;5027398;28;20067;-69
2022/12/07 09:06:33;;;;;;;35.47;11.90;;;2.50;99.90;;;;;;5025965;28;20106;-67
2022/12/07 09:09:01;;;;;;;34.10;12.23;;;2.50;99.90;;;;;;5027373;28;20057;-68
2022/12/07 09:11:27;;;;;;;34.65;12.60;;;2.60;99.90;;;;;;5027675;28;20052;-69
2022/12/07 09:13:52;;;;;;;29.30;11.40;;;2.60;99.90;;;;;;5028375;28;20445;-68
2022/12/07 09:16:18;;;;;;;30.60;12.40;;;2.60;99.90;;;;;;5027893;28;20029;-69
2022/12/07 09:18:44;;;;;;;29.60;11.68;;;2.60;99.90;;;;;;5027640;28;20048;-68
2022/12/07 09:21:10;;;;;;;28.45;10.65;;;2.70;99.90;;;;;;5036330;28;20389;-68
2022/12/07 09:23:35;;;;;;;28.55;10.48;;;2.70;99.90;;;;;;5029875;28;20042;-68
2022/12/07 09:26:02;;;;;;;26.92;10.07;;;2.70;99.90;;;;;;5013461;28;20045;-67
2022/12/07 09:28:28;;;;;;;25.80;9.65;;;2.70;99.90;;;;;;5020268;28;20490;-69
2022/12/07 09:30:54;;;;;;;31.73;10.60;;;2.80;99.90;;;;;;5026435;28;20029;-68
2022/12/07 09:33:20;;;;;;;27.13;10.88;;;2.70;99.90;;;;;;5027117;28;20030;-68
2022/12/07 09:35:47;;;;;;;28.40;11.18;;;2.80;99.90;;;;;;5026516;28;20717;-68
2022/12/07 09:38:14;;;;;;;26.35;10.38;;;2.80;99.90;;;;;;5026978;28;20079;-68
2022/12/07 09:40:42;;;;;;;31.50;11.18;;;2.80;99.90;;;;;;5028019;28;20029;-68
2022/12/07 09:43:14;;;;;;;26.58;10.82;;;2.90;99.90;;;;;;5026772;28;20538;-68
2022/12/07 09:45:40;;;;;;;26.25;10.48;;;2.90;99.90;;;;;;5027811;28;20037;-69
2022/12/07 09:48:19;;;;;;;28.75;10.60;;;2.90;99.90;;;;;;5023732;28;20086;-68
2022/12/07 09:50:47;;;;;;;24.35;9.55;;;3.00;99.90;;;;;;5027024;28;20080;-67
2022/12/07 09:53:36;;;;;;;28.38;10.65;;;2.90;99.90;;;;;;5027062;28;20108;-66
2022/12/07 09:56:02;;;;;;;28.75;10.27;;;2.90;99.90;;;;;;5028591;28;20037;-68
2022/12/07 09:58:29;;;;;;;25.98;10.30;;;2.90;99.90;;;;;;5019978;28;20033;-69
2022/12/07 10:01:19;;;;;;;26.50;9.98;;;2.90;99.90;;;;;;5023179;28;20041;-68
2022/12/07 10:04:10;;;;;;;30.67;11.32;;;2.90;99.90;;;;;;5026431;28;20514;-68
2022/12/07 10:06:36;;;;;;;25.48;10.23;;;3.00;99.90;;;;;;5022267;28;20371;-67
2022/12/07 10:09:09;;;;;;;22.58;10.23;;;3.00;99.90;;;;;;5027087;28;20036;-68
2022/12/07 10:11:35;;;;;;;26.17;10.85;;;3.10;99.90;;;;;;5025322;28;20029;-69
2022/12/07 10:14:13;;;;;;;26.45;10.80;;;3.00;99.90;;;;;;5027706;28;20314;-68
2022/12/07 10:16:41;;;;;;;26.45;10.75;;;3.00;99.90;;;;;;5022139;28;20065;-68
2022/12/07 10:19:30;;;;;;;24.98;9.73;;;3.00;99.90;;;;;;5024425;28;20029;-69
2022/12/07 10:22:01;;;;;;;25.73;10.43;;;3.10;99.90;;;;;;5027079;28;20128;-68
2022/12/07 10:24:27;;;;;;;22.08;9.77;;;3.10;99.90;;;;;;5028371;28;20038;-68
2022/12/07 10:26:53;;;;;;;26.42;11.00;;;3.00;99.90;;;;;;5024731;28;20044;-68
2022/12/07 10:29:33;;;;;;;24.15;9.77;;;3.10;99.90;;;;;;5028399;28;20025;-68
2022/12/07 10:32:01;;;;;;;29.70;10.85;;;3.10;99.90;;;;;;5027034;28;20063;-68
2022/12/07 10:34:34;;;;;;;33.05;10.50;;;3.10;99.90;;;;;;5022867;28;20046;-67
2022/12/07 10:37:09;;;;;;;25.38;10.25;;;3.10;99.90;;;;;;5031442;28;20477;-69
2022/12/07 10:40:01;;;;;;;24.52;10.48;;;3.10;99.90;;;;;;5041537;28;20025;-68
2022/12/07 10:42:29;;;;;;;27.73;10.70;;;3.10;99.90;;;;;;5033140;28;20037;-69
2022/12/07 10:45:15;;;;;;;23.70;9.60;;;3.10;99.90;;;;;;5050893;28;20036;-71
2022/12/07 10:48:03;;;;;;;24.95;10.48;;;3.10;99.90;;;;;;5050922;28;20040;-69
2022/12/07 10:50:53;;;;;;;26.80;9.93;;;3.10;99.90;;;;;;5037493;28;20068;-69
2022/12/07 10:53:21;;;;;;;23.92;10.50;;;3.10;99.90;;;;;;5022840;28;20458;-68
2022/12/07 10:55:53;;;;;;;26.08;10.45;;;3.10;99.90;;;;;;5048623;28;20482;-69
2022/12/07 10:59:13;;;;;;;30.73;11.73;;;3.10;99.90;;;;;;5041210;28;20441;-68
2022/12/07 11:01:48;;;;;;;27.00;10.15;;;3.20;99.90;;;;;;5021488;28;20031;-68
2022/12/07 11:04:38;;;;;;;24.67;10.57;;;3.20;99.90;;;;;;5019238;28;20070;-69
2022/12/07 11:07:35;;;;;;;26.58;10.52;;;3.20;99.90;;;;;;5028775;28;20046;-69
2022/12/07 11:10:18;;;;;;;26.75;10.32;;;3.30;99.90;;;;;;5019431;28;20086;-69
2022/12/07 11:13:14;;;;;;;21.33;9.55;;;3.30;99.90;;;;;;5030130;28;20100;-69
2022/12/07 11:16:01;;;;;;;26.85;9.88;;;3.40;99.90;;;;;;5029515;28;20033;-68
2022/12/07 11:18:50;;;;;;;18.92;7.95;;;3.40;99.90;;;;;;5031188;28;20030;-66
2022/12/07 11:21:35;;;;;;;23.05;9.35;;;3.30;99.90;;;;;;5047919;28;20076;-68
2022/12/07 11:24:03;;;;;;;23.20;9.18;;;3.40;99.90;;;;;;5026889;28;20041;-67
2022/12/07 11:26:47;;;;;;;23.27;9.30;;;3.30;99.90;;;;;;5028591;28;20466;-66
2022/12/07 11:29:38;;;;;;;24.08;9.60;;;3.30;99.90;;;;;;5028384;28;20111;-65
2022/12/07 11:32:31;;;;;;;22.35;9.50;;;3.40;99.90;;;;;;5028897;28;20092;-70
2022/12/07 11:35:08;;;;;;;22.25;9.30;;;3.40;99.90;;;;;;5027586;28;20033;-70
2022/12/07 11:37:35;;;;;;;25.05;9.32;;;3.40;99.90;;;;;;5024281;28;20030;-70
2022/12/07 11:40:17;;;;;;;16.98;7.57;;;3.50;99.90;;;;;;5027540;28;20029;-68
2022/12/07 11:42:58;;;;;;;17.73;7.32;;;3.50;99.90;;;;;;5024243;28;20061;-68
2022/12/07 11:45:27;;;;;;;20.95;7.72;;;3.50;99.90;;;;;;5029709;28;20117;-67
2022/12/07 11:48:19;;;;;;;20.05;7.90;;;3.50;99.90;;;;;;5029703;28;20537;-68
2022/12/07 11:50:51;;;;;;;19.23;7.78;;;3.50;99.90;;;;;;5028585;28;20056;-69
2022/12/07 11:53:23;;;;;;;18.63;7.60;;;3.40;99.90;;;;;;5028288;28;20033;-67
2022/12/07 11:56:20;;;;;;;16.25;7.40;;;3.50;99.90;;;;;;5028876;28;20055;-68
2022/12/07 11:59:07;;;;;;;22.38;7.40;;;3.50;99.90;;;;;;5024536;28;20029;-69
2022/12/07 12:01:38;;;;;;;18.83;7.43;;;3.40;99.90;;;;;;5029783;28;20033;-68
2022/12/07 12:04:10;;;;;;;19.30;7.72;;;3.40;99.90;;;;;;5029187;28;20025;-68
2022/12/07 12:06:36;;;;;;;18.77;7.85;;;3.50;99.90;;;;;;5028195;28;20037;-70
2022/12/07 12:09:18;;;;;;;20.48;7.72;;;3.50;99.90;;;;;;5028531;28;20120;-70
2022/12/07 12:11:44;;;;;;;18.92;7.72;;;3.50;99.90;;;;;;5028175;28;20025;-70
2022/12/07 12:14:21;;;;;;;18.23;7.30;;;3.60;99.90;;;;;;5026297;28;20028;-70
2022/12/07 12:17:12;;;;;;;19.65;8.15;;;3.60;99.90;;;;;;5009282;28;20541;-69
2022/12/07 12:19:59;;;;;;;17.52;7.50;;;3.50;99.90;;;;;;5016928;28;20696;-70
2022/12/07 12:22:36;;;;;;;21.55;7.53;;;3.50;99.90;;;;;;5027246;28;20168;-70
2022/12/07 12:25:06;;;;;;;21.15;8.23;;;3.50;99.90;;;;;;5026933;28;20525;-70
2022/12/07 12:27:36;;;;;;;18.27;8.57;;;3.50;99.90;;;;;;5022696;28;20132;-69
2022/12/07 12:30:05;;;;;;;19.20;7.80;;;3.60;99.90;;;;;;5028851;28;20033;-70
2022/12/07 12:32:41;;;;;;;22.58;9.00;;;3.70;99.90;;;;;;5026617;28;20363;-69
2022/12/07 12:35:25;;;;;;;20.08;7.78;;;3.70;99.90;;;;;;5008794;28;20661;-70
2022/12/07 12:37:53;;;;;;;18.90;7.80;;;3.60;99.90;;;;;;5027964;28;20092;-70
2022/12/07 12:40:30;;;;;;;21.23;8.18;;;3.60;99.90;;;;;;5028460;28;20033;-71
2022/12/07 12:42:56;;;;;;;19.42;7.50;;;3.70;99.90;;;;;;5027804;28;20130;-70
2022/12/07 12:45:31;;;;;;;19.80;8.40;;;3.70;99.90;;;;;;5026963;28;20034;-70
2022/12/07 12:48:27;;;;;;;18.23;7.07;;;3.70;99.90;;;;;;5025737;28;20029;-70
2022/12/07 12:51:31;;;;;;;20.25;8.52;;;3.70;99.90;;;;;;5024429;28;20041;-70
2022/12/07 12:54:13;;;;;;;19.00;7.68;;;3.70;99.90;;;;;;5023780;28;20038;-69
2022/12/07 12:57:03;;;;;;;19.70;7.90;;;3.60;99.90;;;;;;5027426;28;20028;-69
2022/12/07 12:59:31;;;;;;;17.52;7.25;;;3.60;99.90;;;;;;5028394;28;20028;-69